createdAt,value
2023-03-08T00:01:59.479Z,31.70
2023-03-08T00:04:28.246Z,34.60
2023-03-08T00:06:57.056Z,30.60
2023-03-08T00:09:25.648Z,31.90
2023-03-08T00:11:53.958Z,32.90
2023-03-08T00:14:22.689Z,33.40
2023-03-08T00:16:50.889Z,36.40
2023-03-08T00:19:19.372Z,33.50
2023-03-08T00:21:47.853Z,34.40
2023-03-08T00:24:18.182Z,34.60
2023-03-08T00:26:47.691Z,31.90
2023-03-08T00:29:16.105Z,35.20
2023-03-08T00:31:44.519Z,32.70
2023-03-08T00:34:13.671Z,33.80
2023-03-08T00:36:45.419Z,32.10
2023-03-08T00:39:16.604Z,32.90
2023-03-08T00:41:44.948Z,34.00
2023-03-08T00:44:13.530Z,33.60
2023-03-08T00:46:41.927Z,33.40
2023-03-08T00:49:11.310Z,34.80
2023-03-08T00:51:39.968Z,31.80
2023-03-08T00:54:09.212Z,32.80
2023-03-08T00:56:37.691Z,30.80
2023-03-08T00:59:06.105Z,31.00
2023-03-08T01:01:34.767Z,29.50
2023-03-08T01:04:04.527Z,30.90
2023-03-08T01:06:33.679Z,31.60
2023-03-08T01:09:02.568Z,32.20
2023-03-08T01:11:33.433Z,34.90
2023-03-08T01:14:02.195Z,31.00
2023-03-08T01:16:32.729Z,34.00
2023-03-08T01:19:01.532Z,30.60
2023-03-08T01:21:30.497Z,31.40
2023-03-08T01:23:58.918Z,30.70
2023-03-08T01:26:31.897Z,29.00
2023-03-08T01:29:00.568Z,29.70
2023-03-08T01:31:32.335Z,28.20
2023-03-08T01:34:03.164Z,26.90
2023-03-08T01:36:31.677Z,27.40
2023-03-08T01:39:01.476Z,32.60
2023-03-08T01:41:31.012Z,32.80
2023-03-08T01:44:03.959Z,29.70
2023-03-08T01:46:36.337Z,29.00
2023-03-08T01:49:12.086Z,27.60
2023-03-08T01:51:52.347Z,27.40
2023-03-08T01:54:25.336Z,26.80
2023-03-08T01:56:55.256Z,27.40
2023-03-08T01:59:23.639Z,27.30
2023-03-08T02:01:52.196Z,28.70
2023-03-08T02:04:20.827Z,25.20
2023-03-08T02:06:52.890Z,27.50
2023-03-08T02:09:24.240Z,24.90
2023-03-08T02:11:55.481Z,26.10
2023-03-08T02:14:29.509Z,25.10
2023-03-08T02:16:58.074Z,27.60
2023-03-08T02:19:41.712Z,25.60
2023-03-08T02:22:12.720Z,25.90
2023-03-08T02:24:41.037Z,23.80
2023-03-08T02:29:42.723Z,27.40
2023-03-08T02:32:12.181Z,25.30
2023-03-08T02:34:40.926Z,24.20
2023-03-08T02:37:09.849Z,24.40
2023-03-08T02:39:38.212Z,23.00
2023-03-08T02:42:06.986Z,23.70
2023-03-08T02:44:36.723Z,25.80
2023-03-08T02:47:05.509Z,23.90
2023-03-08T02:49:34.098Z,25.50
2023-03-08T02:52:04.852Z,26.80
2023-03-08T02:54:34.412Z,24.20
2023-03-08T02:57:02.687Z,24.30
2023-03-08T02:59:31.591Z,24.60
2023-03-08T03:02:00.993Z,24.70
2023-03-08T03:04:33.400Z,26.50
2023-03-08T03:09:34.559Z,23.50
2023-03-08T03:12:04.166Z,23.90
2023-03-08T03:14:37.638Z,23.70
2023-03-08T03:17:06.051Z,24.00
2023-03-08T03:19:34.910Z,24.30
2023-03-08T03:22:07.833Z,24.90
2023-03-08T03:24:37.732Z,23.30
2023-03-08T03:27:07.424Z,24.30
2023-03-08T03:29:38.706Z,24.40
2023-03-08T03:32:12.340Z,24.00
2023-03-08T03:34:44.779Z,26.50
2023-03-08T03:37:13.642Z,22.60
2023-03-08T03:39:42.739Z,22.70
2023-03-08T03:42:12.875Z,22.90
2023-03-08T03:44:46.359Z,21.90
2023-03-08T03:47:18.334Z,23.30
2023-03-08T03:49:47.530Z,22.40
2023-03-08T03:52:17.562Z,23.70
2023-03-08T03:54:53.140Z,22.40
2023-03-08T03:57:21.916Z,23.90
2023-03-08T03:59:50.481Z,26.70
2023-03-08T04:02:19.171Z,25.00
2023-03-08T04:04:55.239Z,24.30
2023-03-08T04:07:26.078Z,25.10
2023-03-08T04:10:00.120Z,23.80
2023-03-08T04:12:29.287Z,23.20
2023-03-08T04:14:57.881Z,24.00
2023-03-08T04:17:29.945Z,23.10
2023-03-08T04:19:59.860Z,25.80
2023-03-08T04:22:34.993Z,24.60
2023-03-08T04:25:09.478Z,24.80
2023-03-08T04:27:44.659Z,23.60
2023-03-08T04:30:15.003Z,24.60
2023-03-08T04:32:44.236Z,25.50
2023-03-08T04:35:13.282Z,22.40
2023-03-08T04:37:44.227Z,23.70
2023-03-08T04:40:13.535Z,23.20
2023-03-08T04:43:02.798Z,25.60
2023-03-08T04:45:35.789Z,25.20
2023-03-08T04:48:07.237Z,24.30
2023-03-08T04:50:39.729Z,25.70
2023-03-08T04:53:13.658Z,30.30
2023-03-08T04:55:43.067Z,25.60
2023-03-08T04:58:11.720Z,27.70
2023-03-08T05:00:40.350Z,25.40
2023-03-08T05:03:10.531Z,26.90
2023-03-08T05:05:39.426Z,27.00
2023-03-08T05:08:08.417Z,25.90
2023-03-08T05:10:38.781Z,25.20
2023-03-08T05:13:09.818Z,26.40
2023-03-08T05:15:42.095Z,26.20
2023-03-08T05:19:08.097Z,25.70
2023-03-08T05:22:58.691Z,26.30
2023-03-08T05:26:43.068Z,27.50
2023-03-08T05:30:27.449Z,25.50
2023-03-08T05:34:14.154Z,29.50
2023-03-08T05:37:58.108Z,29.50
2023-03-08T05:41:43.391Z,24.90
2023-03-08T05:45:28.372Z,24.40
2023-03-08T05:49:12.733Z,27.60
2023-03-08T05:52:56.305Z,24.30
2023-03-08T05:56:43.820Z,24.30
2023-03-08T06:00:27.459Z,23.10
2023-03-08T06:04:12.331Z,21.00
2023-03-08T06:07:58.143Z,24.10
2023-03-08T06:11:43.617Z,22.00
2023-03-08T06:15:28.001Z,24.40
2023-03-08T06:18:18.281Z,23.30
2023-03-08T06:21:23.235Z,24.70
2023-03-08T06:24:04.672Z,21.70
2023-03-08T06:26:40.885Z,24.00
2023-03-08T06:29:15.228Z,22.60
2023-03-08T06:32:10.663Z,24.00
2023-03-08T06:34:48.108Z,25.50
2023-03-08T06:37:41.026Z,23.70
2023-03-08T06:40:21.016Z,23.20
2023-03-08T06:43:12.331Z,24.60
2023-03-08T06:45:56.584Z,23.60
2023-03-08T06:48:53.126Z,20.20
2023-03-08T06:51:51.881Z,24.80
2023-03-08T06:54:39.779Z,22.40
2023-03-08T06:57:11.451Z,20.20
2023-03-08T07:02:44.139Z,21.40
2023-03-08T07:05:31.244Z,21.20
2023-03-08T07:08:29.314Z,20.70
2023-03-08T07:11:31.393Z,18.90
2023-03-08T07:14:08.372Z,19.50
2023-03-08T07:16:51.230Z,21.40
2023-03-08T07:19:37.242Z,21.10
2023-03-08T07:22:29.426Z,20.20
2023-03-08T07:25:24.685Z,20.80
2023-03-08T07:28:24.656Z,20.60
2023-03-08T07:31:19.359Z,22.50
2023-03-08T07:34:11.813Z,21.20
2023-03-08T07:36:56.162Z,21.50
2023-03-08T07:39:52.502Z,19.90
2023-03-08T07:42:44.431Z,20.90
2023-03-08T08:02:29.564Z,23.50
2023-03-08T08:05:33.533Z,22.00
2023-03-08T08:08:19.301Z,20.50
2023-03-08T08:26:36.105Z,22.10
2023-03-08T08:29:22.496Z,19.20
2023-03-08T08:32:17.494Z,21.30
2023-03-08T08:35:09.190Z,21.40
2023-03-08T08:37:57.484Z,19.90
2023-03-08T08:40:47.870Z,20.60
2023-03-08T08:43:37.034Z,20.20
2023-03-08T08:46:38.583Z,19.70
2023-03-08T08:49:31.446Z,21.70
2023-03-08T08:52:19.294Z,20.80
2023-03-08T08:55:13.973Z,20.90
2023-03-08T08:58:02.339Z,21.00
2023-03-08T09:00:54.272Z,18.60
2023-03-08T09:04:13.641Z,16.70
2023-03-08T09:07:10.163Z,17.80
2023-03-08T09:10:12.590Z,18.10
2023-03-08T09:13:03.814Z,18.80
2023-03-08T09:15:51.659Z,16.60
2023-03-08T09:18:36.170Z,17.30
2023-03-08T09:21:08.708Z,19.50
2023-03-08T09:23:59.453Z,19.10
2023-03-08T09:27:02.046Z,17.50
2023-03-08T09:33:33.319Z,19.10
2023-03-08T09:36:26.588Z,20.10
2023-03-08T09:39:15.430Z,17.30
2023-03-08T09:42:09.019Z,20.10
2023-03-08T09:45:08.621Z,19.00
2023-03-08T09:48:26.774Z,17.70
2023-03-08T09:51:16.889Z,18.30
2023-03-08T09:57:28.938Z,15.90
2023-03-08T10:00:32.802Z,16.30
2023-03-08T10:03:44.626Z,17.00
2023-03-08T10:07:22.240Z,14.80
2023-03-08T10:10:08.881Z,14.20
2023-03-08T10:13:20.999Z,15.20
2023-03-08T10:16:34.514Z,16.00
2023-03-08T10:19:29.638Z,15.60
2023-03-08T10:22:35.041Z,16.60
2023-03-08T10:25:37.098Z,15.90
2023-03-08T10:28:36.636Z,15.80
2023-03-08T10:31:35.431Z,13.90
2023-03-08T10:34:33.892Z,15.90
2023-03-08T10:37:21.429Z,16.80
2023-03-08T10:40:09.882Z,16.70
2023-03-08T10:43:08.476Z,16.70
2023-03-08T10:46:14.732Z,15.10
2023-03-08T10:49:33.092Z,16.20
2023-03-08T10:52:02.708Z,16.50
2023-03-08T10:54:31.289Z,16.20
2023-03-08T10:57:02.022Z,15.60
2023-03-08T10:59:33.576Z,18.60
2023-03-08T11:02:23.170Z,15.40
2023-03-08T11:04:56.080Z,15.20
2023-03-08T11:07:27.396Z,17.80
2023-03-08T11:10:26.456Z,14.90
2023-03-08T11:13:06.144Z,16.50
2023-03-08T11:15:39.033Z,16.10
2023-03-08T11:18:32.623Z,19.10
2023-03-08T11:21:06.825Z,16.40
2023-03-08T11:24:10.827Z,15.60
2023-03-08T11:26:51.938Z,17.20
2023-03-08T11:29:39.862Z,17.80
2023-03-08T11:32:17.469Z,18.30
2023-03-08T11:34:57.813Z,17.40
2023-03-08T11:38:16.884Z,17.00
2023-03-08T11:41:33.518Z,16.60
2023-03-08T11:44:44.803Z,16.10
2023-03-08T11:47:53.617Z,15.70
2023-03-08T11:50:36.341Z,16.40
2023-03-08T11:53:09.941Z,17.20
2023-03-08T11:55:40.689Z,16.70
2023-03-08T11:58:27.379Z,16.70
2023-03-08T12:01:00.894Z,16.10
2023-03-08T12:03:41.617Z,16.60
2023-03-08T12:06:28.010Z,14.90
2023-03-08T12:09:05.846Z,15.90
2023-03-08T12:11:47.682Z,16.00
2023-03-08T12:14:23.442Z,15.60
2023-03-08T12:17:01.944Z,13.70
2023-03-08T12:19:43.974Z,15.80
2023-03-08T12:22:23.597Z,16.20
2023-03-08T12:25:25.546Z,16.90
2023-03-08T12:27:57.060Z,14.00
2023-03-08T12:30:37.563Z,15.90
2023-03-08T12:33:06.837Z,18.20
2023-03-08T12:35:36.420Z,17.70
2023-03-08T12:38:10.301Z,13.90
2023-03-08T12:40:44.560Z,16.10
2023-03-08T12:43:20.572Z,14.10
2023-03-08T12:46:05.842Z,14.30
2023-03-08T12:48:44.717Z,14.20
2023-03-08T12:51:13.064Z,14.00
2023-03-08T12:53:51.774Z,15.60
2023-03-08T12:56:27.982Z,15.10
2023-03-08T12:58:59.495Z,14.10
2023-03-08T13:01:30.964Z,12.50
2023-03-08T13:04:00.528Z,13.70
2023-03-08T13:06:37.404Z,13.80
2023-03-08T13:09:13.711Z,13.00
2023-03-08T13:11:46.198Z,13.10
2023-03-08T13:14:28.915Z,13.00
2023-03-08T13:16:57.594Z,12.90
2023-03-08T13:19:27.802Z,11.80
2023-03-08T13:22:03.159Z,11.00
2023-03-08T13:25:01.660Z,12.20
2023-03-08T13:27:49.820Z,13.10
2023-03-08T13:30:24.349Z,10.90
2023-03-08T13:32:54.132Z,11.60
2023-03-08T13:35:22.953Z,11.00
2023-03-08T13:37:57.159Z,10.40
2023-03-08T13:40:26.286Z,10.00
2023-03-08T13:43:04.044Z,10.40
2023-03-08T13:45:33.445Z,9.30
2023-03-08T13:48:04.212Z,11.00
2023-03-08T13:50:38.703Z,9.20
2023-03-08T13:53:36.939Z,8.70
2023-03-08T13:56:06.888Z,8.20
2023-03-08T13:58:39.832Z,8.80
2023-03-08T14:01:17.626Z,8.60
2023-03-08T14:03:46.868Z,8.60
2023-03-08T14:06:30.090Z,7.60
2023-03-08T14:09:01.688Z,9.30
2023-03-08T14:11:32.426Z,7.30
2023-03-08T14:14:07.649Z,8.50
2023-03-08T14:16:37.999Z,9.70
2023-03-08T14:19:19.833Z,8.60
2023-03-08T14:21:59.986Z,7.80
2023-03-08T14:24:30.367Z,8.50
2023-03-08T14:27:06.917Z,9.80
2023-03-08T14:29:36.513Z,8.40
2023-03-08T14:32:24.102Z,9.80
2023-03-08T14:34:52.876Z,8.40
2023-03-08T14:37:27.415Z,9.60
2023-03-08T14:40:11.798Z,9.20
2023-03-08T14:42:45.606Z,10.70
2023-03-08T14:45:37.611Z,9.90
2023-03-08T14:51:06.198Z,11.30
2023-03-08T14:53:40.954Z,10.20
2023-03-08T14:56:15.950Z,10.70
2023-03-08T14:58:49.496Z,10.40
2023-03-08T15:01:25.978Z,11.40
2023-03-08T15:03:54.470Z,11.10
2023-03-08T15:06:27.924Z,10.80
2023-03-08T15:08:56.815Z,10.60
2023-03-08T15:11:25.298Z,9.40
2023-03-08T15:13:54.009Z,10.50
2023-03-08T15:16:22.640Z,10.80
2023-03-08T15:18:51.386Z,11.20
2023-03-08T15:21:25.205Z,10.30
2023-03-08T15:23:59.588Z,11.20
2023-03-08T15:26:31.863Z,11.10
2023-03-08T15:29:10.557Z,10.50
2023-03-08T15:31:52.021Z,10.00
2023-03-08T15:34:30.331Z,9.90
2023-03-08T15:37:01.543Z,11.30
2023-03-08T15:39:50.065Z,12.20
2023-03-08T15:43:05.883Z,11.30
2023-03-08T15:45:34.270Z,12.60
2023-03-08T15:48:07.420Z,13.10
2023-03-08T15:50:36.797Z,11.00
2023-03-08T15:53:05.450Z,11.80
2023-03-08T15:55:34.237Z,11.60
2023-03-08T15:58:07.842Z,12.20
2023-03-08T16:00:37.045Z,14.30
2023-03-08T16:03:05.524Z,11.50
2023-03-08T16:05:34.622Z,10.50
2023-03-08T16:08:03.420Z,11.80
2023-03-08T16:10:40.745Z,11.80
2023-03-08T16:13:12.161Z,12.70
2023-03-08T16:15:44.025Z,11.80
2023-03-08T16:18:14.563Z,12.00
2023-03-08T16:20:46.440Z,15.70
2023-03-08T16:23:15.519Z,14.30
2023-03-08T16:25:46.574Z,13.80
2023-03-08T16:28:16.797Z,16.10
2023-03-08T16:30:56.159Z,11.60
2023-03-08T16:33:28.363Z,10.80
2023-03-08T16:35:57.833Z,11.60
2023-03-08T16:38:26.390Z,9.80
2023-03-08T16:41:06.189Z,10.80
2023-03-08T16:43:49.787Z,11.30
2023-03-08T16:46:22.706Z,11.70
2023-03-08T16:48:54.629Z,9.50
2023-03-08T16:51:25.570Z,11.30
2023-03-08T16:53:54.629Z,9.70
2023-03-08T16:56:25.227Z,9.80
2023-03-08T16:58:55.169Z,10.60
2023-03-08T17:01:24.545Z,9.50
2023-03-08T17:03:53.338Z,8.90
2023-03-08T17:06:22.769Z,7.70
2023-03-08T17:08:52.258Z,10.40
2023-03-08T17:11:28.356Z,9.30
2023-03-08T17:14:09.050Z,10.60
2023-03-08T17:16:43.753Z,10.80
2023-03-08T17:19:13.594Z,10.80
2023-03-08T17:21:42.079Z,10.40
2023-03-08T17:24:12.954Z,9.40
2023-03-08T17:26:43.653Z,10.20
2023-03-08T17:29:12.036Z,10.20
2023-03-08T17:31:41.156Z,11.80
2023-03-08T17:34:10.028Z,10.20
2023-03-08T17:36:39.223Z,10.10
2023-03-08T17:39:07.510Z,10.20
2023-03-08T17:41:38.822Z,14.20
2023-03-08T17:44:07.309Z,10.00
2023-03-08T17:46:36.093Z,11.20
2023-03-08T17:49:04.718Z,11.90
2023-03-08T17:51:33.404Z,16.50
2023-03-08T17:54:03.439Z,18.40
2023-03-08T17:56:35.799Z,15.50
2023-03-08T17:59:04.598Z,13.60
2023-03-08T18:01:34.202Z,13.00
2023-03-08T18:04:02.814Z,13.50
2023-03-08T18:06:36.813Z,13.30
2023-03-08T18:09:10.409Z,15.00
2023-03-08T18:11:38.689Z,16.50
2023-03-08T18:14:13.693Z,17.40
2023-03-08T18:16:42.831Z,20.20
2023-03-08T18:19:15.911Z,14.30
2023-03-08T18:21:45.601Z,15.80
2023-03-08T18:24:14.264Z,14.60
2023-03-08T18:26:43.206Z,14.60
2023-03-08T18:29:12.817Z,16.10
2023-03-08T18:31:41.605Z,14.60
2023-03-08T18:34:10.183Z,16.20
2023-03-08T18:36:38.569Z,14.80
2023-03-08T18:39:08.244Z,17.80
2023-03-08T18:41:36.868Z,18.10
2023-03-08T18:44:11.819Z,17.50
2023-03-08T18:46:40.642Z,19.50
2023-03-08T18:49:12.041Z,21.50
2023-03-08T18:51:41.814Z,22.30
2023-03-08T18:54:20.941Z,19.90
2023-03-08T18:56:50.288Z,22.60
2023-03-08T18:59:18.666Z,21.80
2023-03-08T19:01:47.093Z,21.60
2023-03-08T19:04:16.048Z,19.60
2023-03-08T19:06:44.647Z,19.30
2023-03-08T19:09:14.760Z,18.80
2023-03-08T19:11:43.790Z,20.30
2023-03-08T19:14:12.453Z,19.90
2023-03-08T19:16:42.244Z,20.60
2023-03-08T19:19:13.304Z,18.50
2023-03-08T19:21:43.851Z,17.80
2023-03-08T19:24:13.810Z,20.00
2023-03-08T19:26:43.462Z,19.00
2023-03-08T19:29:17.577Z,18.90
2023-03-08T19:31:53.218Z,20.00
2023-03-08T19:34:44.956Z,17.30
2023-03-08T19:37:13.980Z,19.90
2023-03-08T19:39:44.590Z,17.50
2023-03-08T19:42:16.023Z,21.20
2023-03-08T19:44:48.635Z,17.90
2023-03-08T19:47:17.878Z,19.30
2023-03-08T19:49:47.029Z,18.40
2023-03-08T19:52:15.814Z,20.00
2023-03-08T19:54:47.198Z,20.10
2023-03-08T19:57:15.783Z,20.00
2023-03-08T19:59:45.464Z,20.70
2023-03-08T20:02:15.102Z,20.20
2023-03-08T20:04:45.709Z,20.00
2023-03-08T20:07:15.931Z,24.60
2023-03-08T20:09:44.615Z,21.90
2023-03-08T20:12:15.618Z,24.40
2023-03-08T20:14:45.679Z,21.90
2023-03-08T20:17:14.474Z,21.30
2023-03-08T20:19:43.575Z,30.90
2023-03-08T20:22:15.317Z,24.30
2023-03-08T20:24:52.748Z,21.50
2023-03-08T20:27:22.848Z,20.90
2023-03-08T20:30:07.033Z,21.30
2023-03-08T20:32:40.044Z,20.20
2023-03-08T20:35:25.632Z,21.00
2023-03-08T20:40:54.660Z,21.30
2023-03-08T20:43:29.927Z,19.10
2023-03-08T20:46:16.088Z,21.40
2023-03-08T20:49:02.883Z,18.30
2023-03-08T20:51:52.947Z,19.80
2023-03-08T20:54:47.025Z,17.70
2023-03-08T20:57:27.635Z,16.80
2023-03-08T21:00:19.956Z,18.80
2023-03-08T21:02:52.091Z,17.70
2023-03-08T21:05:30.926Z,17.90
2023-03-08T21:08:07.473Z,16.40
2023-03-08T21:11:00.878Z,17.30
2023-03-08T21:13:51.371Z,16.40
2023-03-08T21:16:23.523Z,19.10
2023-03-08T21:18:58.773Z,19.10
2023-03-08T21:21:40.865Z,17.10
2023-03-08T21:24:18.600Z,16.80
2023-03-08T21:26:53.912Z,17.00
2023-03-08T21:29:36.940Z,17.50
2023-03-08T21:32:16.396Z,17.90
2023-03-08T21:35:07.101Z,19.10
2023-03-08T21:37:51.649Z,18.10
2023-03-08T21:40:52.900Z,22.70
2023-03-08T21:43:46.695Z,23.40
2023-03-08T21:46:31.631Z,22.60
2023-03-08T21:49:33.917Z,24.20
2023-03-08T21:52:37.433Z,23.10
2023-03-08T21:57:54.751Z,28.20
2023-03-08T22:00:54.805Z,31.10
2023-03-08T22:03:39.701Z,29.80
2023-03-08T22:06:27.087Z,31.10
2023-03-08T22:09:30.080Z,27.20
2023-03-08T22:12:27.850Z,28.50
2023-03-08T22:15:17.441Z,33.10
2023-03-08T22:18:05.480Z,34.60
2023-03-08T22:20:38.272Z,31.50
2023-03-08T22:23:10.899Z,29.50
2023-03-08T22:25:55.246Z,28.50
2023-03-08T22:28:32.891Z,26.80
2023-03-08T22:31:36.845Z,27.80
2023-03-08T22:34:18.089Z,29.90
2023-03-08T22:36:57.802Z,27.10
2023-03-08T22:39:31.632Z,25.00
2023-03-08T22:42:18.768Z,27.00
2023-03-08T22:44:52.647Z,23.80
2023-03-08T22:47:27.252Z,27.40
2023-03-08T22:50:09.443Z,25.60
2023-03-08T22:52:40.150Z,25.00
2023-03-08T22:55:17.241Z,25.30
2023-03-08T22:58:05.987Z,24.40
2023-03-08T23:00:54.225Z,23.70
2023-03-08T23:03:42.288Z,23.10
2023-03-08T23:06:14.970Z,25.10
2023-03-08T23:08:55.470Z,24.20
2023-03-08T23:11:34.001Z,22.90
2023-03-08T23:14:18.084Z,23.60
2023-03-08T23:16:49.219Z,23.60
2023-03-08T23:22:22.361Z,22.30
2023-03-08T23:25:05.391Z,22.70
2023-03-08T23:27:46.376Z,25.70
2023-03-08T23:30:28.148Z,24.20
2023-03-08T23:33:07.350Z,21.90
2023-03-08T23:35:51.169Z,22.80
2023-03-08T23:38:36.129Z,24.50
2023-03-08T23:41:30.192Z,23.40
2023-03-08T23:44:22.466Z,22.10
2023-03-08T23:47:16.305Z,23.40
2023-03-08T23:50:13.143Z,22.80
2023-03-08T23:52:56.210Z,21.70
2023-03-08T23:55:32.553Z,21.30
2023-03-08T23:58:05.412Z,22.50
